createdAt,value
2019-03-19T00:00:14.338Z,6.20
2019-03-19T00:02:47.927Z,6.20
2019-03-19T00:05:17.171Z,6.10
2019-03-19T00:07:49.989Z,6.10
2019-03-19T00:10:20.184Z,6.10
2019-03-19T00:12:54.402Z,6.10
2019-03-19T00:15:27.780Z,6.00
2019-03-19T00:17:58.029Z,6.00
2019-03-19T00:20:28.826Z,6.00
2019-03-19T00:23:00.275Z,5.80
2019-03-19T00:25:30.719Z,5.90
2019-03-19T00:28:00.061Z,5.90
2019-03-19T00:30:33.960Z,5.90
2019-03-19T00:33:07.511Z,5.90
2019-03-19T00:35:40.026Z,6.00
2019-03-19T00:38:11.541Z,6.10
2019-03-19T00:40:40.821Z,6.10
2019-03-19T00:43:11.862Z,6.20
2019-03-19T00:45:43.474Z,6.00
2019-03-19T00:48:15.442Z,6.10
2019-03-19T00:50:46.836Z,6.10
2019-03-19T00:53:19.303Z,6.00
2019-03-19T00:55:50.473Z,5.90
2019-03-19T00:58:20.118Z,5.80
2019-03-19T01:00:50.563Z,5.80
2019-03-19T01:03:21.873Z,5.80
2019-03-19T01:05:51.159Z,6.00
2019-03-19T01:08:23.906Z,6.10
2019-03-19T01:10:54.977Z,6.10
2019-03-19T01:13:30.219Z,6.00
2019-03-19T01:15:59.455Z,6.00
2019-03-19T01:18:31.016Z,6.00
2019-03-19T01:21:00.293Z,6.10
2019-03-19T01:23:31.764Z,6.10
2019-03-19T01:26:04.110Z,6.10
2019-03-19T01:28:35.571Z,6.10
2019-03-19T01:31:07.837Z,6.00
2019-03-19T01:33:38.101Z,5.90
2019-03-19T01:36:07.438Z,6.00
2019-03-19T01:38:36.720Z,6.10
2019-03-19T01:41:07.008Z,5.90
2019-03-19T01:43:42.945Z,5.90
2019-03-19T01:46:13.457Z,5.80
2019-03-19T01:48:43.567Z,5.80
2019-03-19T01:51:12.970Z,5.80
2019-03-19T01:53:47.944Z,5.80
2019-03-19T01:56:20.241Z,5.80
2019-03-19T01:58:52.257Z,5.80
2019-03-19T02:01:21.590Z,5.90
2019-03-19T02:03:54.443Z,5.90
2019-03-19T02:06:34.357Z,5.80
2019-03-19T02:09:04.419Z,5.70
2019-03-19T02:11:33.863Z,5.80
2019-03-19T02:14:03.172Z,5.80
2019-03-19T02:16:32.929Z,5.80
2019-03-19T02:19:02.197Z,5.80
2019-03-19T02:21:37.617Z,5.90
2019-03-19T02:24:08.573Z,5.90
2019-03-19T02:26:38.992Z,5.80
2019-03-19T02:29:10.711Z,5.90
2019-03-19T02:31:42.199Z,5.80
2019-03-19T02:34:13.869Z,5.80
2019-03-19T02:36:43.189Z,5.80
2019-03-19T02:39:17.686Z,5.80
2019-03-19T02:41:49.615Z,6.00
2019-03-19T02:44:20.047Z,5.90
2019-03-19T02:46:49.371Z,5.80
2019-03-19T02:49:19.929Z,5.70
2019-03-19T02:51:49.246Z,5.80
2019-03-19T02:54:20.174Z,5.90
2019-03-19T02:56:49.420Z,5.90
2019-03-19T02:59:18.704Z,5.80
2019-03-19T03:01:54.297Z,5.70
2019-03-19T03:04:23.721Z,5.70
2019-03-19T03:06:53.052Z,5.60
2019-03-19T03:09:22.399Z,5.60
2019-03-19T03:11:54.621Z,5.70
2019-03-19T03:14:28.193Z,5.70
2019-03-19T03:17:02.082Z,5.70
2019-03-19T03:19:31.353Z,5.60
2019-03-19T03:22:00.669Z,5.50
2019-03-19T03:24:34.047Z,5.60
2019-03-19T03:27:04.352Z,5.60
2019-03-19T03:29:35.353Z,5.70
2019-03-19T03:32:07.826Z,5.60
2019-03-19T03:34:37.991Z,5.70
2019-03-19T03:37:07.343Z,5.70
2019-03-19T03:39:38.823Z,5.80
2019-03-19T03:42:10.078Z,5.70
2019-03-19T03:44:44.669Z,5.70
2019-03-19T03:47:14.983Z,5.60
2019-03-19T03:49:47.816Z,5.50
2019-03-19T03:52:19.481Z,5.50
2019-03-19T03:54:52.570Z,5.40
2019-03-19T03:57:22.578Z,5.40
2019-03-19T03:59:54.340Z,5.40
2019-03-19T04:02:30.779Z,5.30
2019-03-19T04:05:00.037Z,5.30
2019-03-19T04:07:34.380Z,5.30
2019-03-19T04:10:06.383Z,5.30
2019-03-19T04:12:46.438Z,5.30
2019-03-19T04:15:16.967Z,5.40
2019-03-19T04:17:49.495Z,5.50
2019-03-19T04:20:22.939Z,5.40
2019-03-19T04:22:52.284Z,5.50
2019-03-19T04:25:21.590Z,5.40
2019-03-19T04:27:53.573Z,5.40
2019-03-19T04:30:23.120Z,5.40
2019-03-19T04:32:54.981Z,5.30
2019-03-19T04:35:24.565Z,5.30
2019-03-19T04:37:57.754Z,5.30
2019-03-19T04:40:30.158Z,5.20
2019-03-19T04:43:11.058Z,5.20
2019-03-19T04:45:45.729Z,5.20
2019-03-19T04:48:18.801Z,5.20
2019-03-19T04:50:48.699Z,5.30
2019-03-19T04:53:24.387Z,5.40
2019-03-19T04:56:08.226Z,5.40
2019-03-19T04:58:41.541Z,5.30
2019-03-19T05:01:11.790Z,5.20
2019-03-19T05:03:41.276Z,5.20
2019-03-19T05:06:15.600Z,5.10
2019-03-19T05:08:49.265Z,5.20
2019-03-19T05:11:18.478Z,5.20
2019-03-19T05:13:50.936Z,5.10
2019-03-19T05:16:20.261Z,5.20
2019-03-19T05:18:50.700Z,5.30
2019-03-19T05:21:20.000Z,5.30
2019-03-19T05:23:49.332Z,5.30
2019-03-19T05:26:20.339Z,5.30
2019-03-19T05:28:50.594Z,5.10
2019-03-19T05:31:20.837Z,5.10
2019-03-19T05:33:51.012Z,5.20
2019-03-19T05:36:22.321Z,5.10
2019-03-19T05:38:55.160Z,5.10
2019-03-19T05:41:24.545Z,5.10
2019-03-19T05:43:56.032Z,5.20
2019-03-19T05:46:26.035Z,5.30
2019-03-19T05:48:57.868Z,5.30
2019-03-19T05:51:27.216Z,5.40
2019-03-19T05:53:58.080Z,5.40
2019-03-19T05:56:28.823Z,5.50
2019-03-19T05:59:07.592Z,5.40
2019-03-19T06:04:42.605Z,5.40
2019-03-19T06:07:14.993Z,5.30
2019-03-19T06:09:44.676Z,5.30
2019-03-19T06:12:16.468Z,5.20
2019-03-19T06:14:45.759Z,5.30
2019-03-19T06:17:15.425Z,5.30
2019-03-19T06:19:46.656Z,5.50
2019-03-19T06:22:19.997Z,5.50
2019-03-19T06:24:53.105Z,5.50
2019-03-19T06:27:22.756Z,5.60
2019-03-19T06:29:52.925Z,5.50
2019-03-19T06:32:22.466Z,5.50
2019-03-19T06:34:51.778Z,5.40
2019-03-19T06:37:23.134Z,5.50
2019-03-19T06:39:54.818Z,5.50
2019-03-19T06:42:24.453Z,5.50
2019-03-19T06:45:01.320Z,5.50
2019-03-19T06:47:32.631Z,5.60
2019-03-19T06:50:01.877Z,5.60
2019-03-19T06:52:35.023Z,5.70
2019-03-19T06:55:03.812Z,5.70
2019-03-19T06:57:39.195Z,5.80
2019-03-19T07:00:15.259Z,5.70
2019-03-19T07:02:46.238Z,5.80
2019-03-19T07:05:21.544Z,5.90
2019-03-19T07:07:52.868Z,5.90
2019-03-19T07:10:25.356Z,5.90
2019-03-19T07:12:56.451Z,6.00
2019-03-19T07:15:31.525Z,6.10
2019-03-19T07:18:03.610Z,6.10
2019-03-19T07:20:35.116Z,6.10
2019-03-19T07:23:08.096Z,6.20
2019-03-19T07:25:38.942Z,6.30
2019-03-19T07:28:21.426Z,6.30
2019-03-19T07:30:44.490Z,6.30
2019-03-19T07:33:15.385Z,6.40
2019-03-19T07:35:46.790Z,6.50
2019-03-19T07:38:16.523Z,6.50
2019-03-19T07:40:45.920Z,6.60
2019-03-19T07:43:19.921Z,6.60
2019-03-19T07:45:52.946Z,6.70
2019-03-19T07:48:23.426Z,6.80
2019-03-19T07:50:56.353Z,6.90
2019-03-19T07:56:03.946Z,7.00
2019-03-19T07:58:44.801Z,7.00
2019-03-19T08:01:05.145Z,7.00
2019-03-19T08:03:37.859Z,7.10
2019-03-19T08:06:07.195Z,7.40
2019-03-19T08:08:37.427Z,7.80
2019-03-19T08:11:23.570Z,8.20
2019-03-19T08:13:52.857Z,8.50
2019-03-19T08:16:27.335Z,8.90
2019-03-19T08:18:54.247Z,9.00
2019-03-19T08:21:26.082Z,9.00
2019-03-19T08:23:58.756Z,8.80
2019-03-19T08:29:28.051Z,8.60
2019-03-19T08:31:57.396Z,8.50
2019-03-19T08:34:26.816Z,8.60
2019-03-19T08:36:58.496Z,8.60
2019-03-19T08:39:29.141Z,8.50
2019-03-19T08:42:02.522Z,8.60
2019-03-19T08:44:33.863Z,8.60
2019-03-19T08:47:09.250Z,8.60
2019-03-19T08:49:39.520Z,8.70
2019-03-19T08:52:08.839Z,8.90
2019-03-19T08:54:39.779Z,9.20
2019-03-19T08:57:13.685Z,9.00
2019-03-19T08:59:46.631Z,9.00
2019-03-19T09:02:18.798Z,9.20
2019-03-19T09:04:48.137Z,9.30
2019-03-19T09:07:21.255Z,9.50
2019-03-19T09:09:56.554Z,9.50
2019-03-19T09:12:28.130Z,9.50
2019-03-19T09:15:01.101Z,9.50
2019-03-19T09:17:33.654Z,9.30
2019-03-19T09:20:04.186Z,9.30
2019-03-19T09:22:33.554Z,9.40
2019-03-19T09:25:03.229Z,9.60
2019-03-19T09:27:35.358Z,9.50
2019-03-19T09:30:18.844Z,9.30
2019-03-19T09:32:50.188Z,9.20
2019-03-19T09:35:26.039Z,9.20
2019-03-19T09:40:57.773Z,9.10
2019-03-19T09:43:29.156Z,9.10
2019-03-19T09:46:01.942Z,9.30
2019-03-19T09:48:36.630Z,9.30
2019-03-19T09:51:10.768Z,9.60
2019-03-19T09:53:40.989Z,9.70
2019-03-19T09:56:12.683Z,9.80
2019-03-19T09:58:42.127Z,9.90
2019-03-19T10:01:11.559Z,10.10
2019-03-19T10:03:47.887Z,10.20
2019-03-19T10:06:17.329Z,10.40
2019-03-19T10:08:46.626Z,10.50
2019-03-19T10:11:16.918Z,10.60
2019-03-19T10:20:25.794Z,10.40
2019-03-19T10:22:55.230Z,10.30
2019-03-19T10:25:28.187Z,10.60
2019-03-19T10:27:57.516Z,10.80
2019-03-19T10:30:26.963Z,10.60
2019-03-19T10:32:58.647Z,10.80
2019-03-19T10:35:28.108Z,10.90
2019-03-19T10:37:57.492Z,10.90
2019-03-19T10:40:26.904Z,10.80
2019-03-19T10:42:56.271Z,10.70
2019-03-19T10:45:32.879Z,10.50
2019-03-19T10:48:06.769Z,10.40
2019-03-19T10:50:42.350Z,10.40
2019-03-19T10:53:13.797Z,10.60
2019-03-19T10:55:45.052Z,10.60
2019-03-19T10:58:15.604Z,10.80
2019-03-19T11:00:45.554Z,10.90
2019-03-19T11:03:16.850Z,11.10
2019-03-19T11:05:46.199Z,11.60
2019-03-19T11:08:16.646Z,11.80
2019-03-19T11:10:45.988Z,12.10
2019-03-19T11:13:17.054Z,12.70
2019-03-19T11:15:49.548Z,13.40
2019-03-19T11:18:18.879Z,14.20
2019-03-19T11:20:48.205Z,14.20
2019-03-19T11:23:17.560Z,13.90
2019-03-19T11:25:54.431Z,13.30
2019-03-19T11:28:19.987Z,13.20
2019-03-19T11:30:49.242Z,13.30
2019-03-19T11:33:23.085Z,12.90
2019-03-19T11:35:52.931Z,13.60
2019-03-19T11:38:22.270Z,14.60
2019-03-19T11:40:51.629Z,15.40
2019-03-19T11:43:21.025Z,16.10
2019-03-19T11:45:50.373Z,15.90
2019-03-19T11:48:20.843Z,15.90
2019-03-19T11:50:50.147Z,15.30
2019-03-19T11:53:22.680Z,15.50
2019-03-19T11:55:53.128Z,15.20
2019-03-19T11:58:23.463Z,15.80
2019-03-19T12:01:00.115Z,16.10
2019-03-19T12:03:29.444Z,17.30
2019-03-19T12:06:00.351Z,18.30
2019-03-19T12:08:41.726Z,18.30
2019-03-19T12:11:14.856Z,16.90
2019-03-19T12:13:48.213Z,16.40
2019-03-19T12:16:18.105Z,16.80
2019-03-19T12:18:49.289Z,17.10
2019-03-19T12:21:22.108Z,17.00
2019-03-19T12:23:56.263Z,17.30
2019-03-19T12:26:25.606Z,17.20
2019-03-19T12:28:56.128Z,17.20
2019-03-19T12:31:25.510Z,17.60
2019-03-19T12:33:55.849Z,17.10
2019-03-19T12:36:25.230Z,15.60
2019-03-19T12:38:56.169Z,16.00
2019-03-19T12:41:25.520Z,16.20
2019-03-19T12:43:56.816Z,15.20
2019-03-19T12:46:26.113Z,14.90
2019-03-19T12:49:00.385Z,14.80
2019-03-19T12:51:31.069Z,14.40
2019-03-19T12:54:00.423Z,14.50
2019-03-19T12:56:30.729Z,14.00
2019-03-19T12:59:00.029Z,13.60
2019-03-19T13:01:31.394Z,13.60
2019-03-19T13:04:03.962Z,13.50
2019-03-19T13:06:34.854Z,13.50
2019-03-19T13:09:06.144Z,13.60
2019-03-19T13:11:39.719Z,13.70
2019-03-19T13:14:14.760Z,14.10
2019-03-19T13:16:44.153Z,14.10
2019-03-19T13:19:16.546Z,13.90
2019-03-19T13:21:50.507Z,14.10
2019-03-19T13:24:37.177Z,14.20
2019-03-19T13:27:10.307Z,14.00
2019-03-19T13:29:52.939Z,13.80
2019-03-19T13:32:22.352Z,13.40
2019-03-19T13:34:52.655Z,13.00
2019-03-19T13:37:26.501Z,12.90
2019-03-19T13:40:00.544Z,13.00
2019-03-19T13:42:35.289Z,13.00
2019-03-19T13:45:11.137Z,12.90
2019-03-19T13:47:45.014Z,12.80
2019-03-19T13:50:18.144Z,12.70
2019-03-19T13:52:49.183Z,12.70
2019-03-19T13:55:23.170Z,12.60
2019-03-19T13:57:53.888Z,12.50
2019-03-19T14:00:25.177Z,12.80
2019-03-19T14:02:54.490Z,12.90
2019-03-19T14:05:24.709Z,12.60
2019-03-19T14:07:54.374Z,12.70
2019-03-19T14:10:25.627Z,12.80
2019-03-19T14:12:55.700Z,13.00
2019-03-19T14:15:27.766Z,12.80
2019-03-19T14:17:57.081Z,12.70
2019-03-19T14:20:27.248Z,12.70
2019-03-19T14:23:04.480Z,12.90
2019-03-19T14:25:35.663Z,12.80
2019-03-19T14:28:48.578Z,12.40
2019-03-19T14:56:04.358Z,12.70
2019-03-19T14:58:33.629Z,12.40
2019-03-19T15:01:02.905Z,12.40
2019-03-19T15:03:32.201Z,12.10
2019-03-19T15:06:01.487Z,12.20
2019-03-19T15:08:32.725Z,12.20
2019-03-19T15:11:01.990Z,12.40
2019-03-19T15:13:31.273Z,12.50
2019-03-19T15:16:00.653Z,12.40
2019-03-19T15:18:29.992Z,12.50
2019-03-19T15:20:59.247Z,12.50
2019-03-19T15:23:31.684Z,12.30
2019-03-19T15:26:00.920Z,12.40
2019-03-19T15:28:31.891Z,12.50
2019-03-19T15:31:01.302Z,12.20
2019-03-19T15:33:30.511Z,12.20
2019-03-19T15:35:59.833Z,12.20
2019-03-19T15:38:34.998Z,12.10
2019-03-19T17:04:05.577Z,12.00
2019-03-19T18:01:57.314Z,12.10
2019-03-19T18:07:44.022Z,12.00
2019-03-19T18:10:22.010Z,12.00
2019-03-19T18:19:02.803Z,11.90
2019-03-19T18:25:00.939Z,11.80
2019-03-19T18:33:40.421Z,11.80
2019-03-19T18:36:11.552Z,11.80
2019-03-19T18:47:49.949Z,11.60
2019-03-19T18:50:29.907Z,11.60
2019-03-19T18:53:14.278Z,11.60
2019-03-19T19:45:20.296Z,11.00
2019-03-19T19:50:53.179Z,11.10
2019-03-19T19:56:35.612Z,11.10
2019-03-19T19:59:25.605Z,11.10
2019-03-19T20:08:20.773Z,11.00
2019-03-19T20:11:01.003Z,11.10
2019-03-19T20:13:54.071Z,11.10
2019-03-19T20:16:24.373Z,11.00
2019-03-19T20:18:55.713Z,10.90
2019-03-19T20:49:06.575Z,11.10
2019-03-19T21:04:00.232Z,11.10
2019-03-19T21:06:46.545Z,11.10
2019-03-19T21:18:48.412Z,11.20
2019-03-19T21:21:17.752Z,11.20
2019-03-19T21:24:24.030Z,11.10
2019-03-19T21:26:27.744Z,11.10
2019-03-19T21:28:56.906Z,11.10
2019-03-19T21:31:27.592Z,11.10
2019-03-19T21:34:00.820Z,11.10
2019-03-19T21:36:30.141Z,11.00
2019-03-19T21:38:59.405Z,11.00
2019-03-19T21:41:28.861Z,10.90
2019-03-19T21:44:18.618Z,10.90
2019-03-19T21:47:07.250Z,11.00
2019-03-19T21:49:52.263Z,11.00
2019-03-19T21:52:27.485Z,11.10
2019-03-19T21:55:13.954Z,11.00
2019-03-19T21:58:02.138Z,10.90
2019-03-19T22:09:47.651Z,10.90
2019-03-19T22:12:14.516Z,10.90
2019-03-19T22:14:47.821Z,10.90
2019-03-19T22:17:19.094Z,10.90
2019-03-19T22:19:50.518Z,10.90
2019-03-19T22:22:21.979Z,10.80
2019-03-19T22:24:55.520Z,10.80
2019-03-19T22:33:25.901Z,10.90
2019-03-19T22:36:11.978Z,10.80
2019-03-19T22:38:56.775Z,10.90
2019-03-19T22:41:46.678Z,10.90
2019-03-19T22:53:31.281Z,10.60
2019-03-19T22:56:09.555Z,10.60
2019-03-19T23:04:33.695Z,10.50
2019-03-19T23:16:10.643Z,10.40
2019-03-19T23:18:41.552Z,10.40
2019-03-19T23:21:11.935Z,10.30
2019-03-19T23:23:41.243Z,10.30
2019-03-19T23:26:11.600Z,10.20
2019-03-19T23:28:43.821Z,10.10
2019-03-19T23:31:13.652Z,10.00
2019-03-19T23:33:44.171Z,10.10
2019-03-19T23:36:13.531Z,10.10
2019-03-19T23:38:43.878Z,10.10
2019-03-19T23:41:13.153Z,10.00
2019-03-19T23:43:42.370Z,10.00
2019-03-19T23:46:11.721Z,9.90
2019-03-19T23:48:44.198Z,10.00
2019-03-19T23:51:16.425Z,10.00
2019-03-19T23:53:45.804Z,10.10
2019-03-19T23:56:17.950Z,10.10
2019-03-19T23:58:47.213Z,10.10
